Point Washington, Florida
Current Conditions -  °F | °C
As of 10:53 PM on Thursday 30 Oct 2014 (Local Time) from KECP Reporting Station
Clear Clear  
Wind Chill: 50°   Ceiling: Unl
Heat Index: 50°   Visibility: 10mi
Dew Point: 44°   Wind: 7mph
Humidity: 80%   Direction: 320°NW
Pressure: 29.98"   Gusts: NA
Location:  30.37°N, 86.11°W
Report Text: KECP 310353Z AUTO 32006KT 10SM CLR 10/07 A2998 RMK AO2 SLP163 T01000067
Loading
Personal Weather Stations






























Interactive Weather Map
Tropical Storm Tracking
New forecast layout! Learn more

10-Day Weather Forecast

Advertisements
Track Severe Weather on mobile